Trail Creek, Indiana
Current Conditions -  °F | °C
As of 12:55 PM on Thursday 30 Oct 2014 (Local Time) from KMGC Reporting Station
Broken Clouds Broken Clouds  
Wind Chill: 50°   Ceiling: 12000
Heat Index: 50°   Visibility: 10mi
Dew Point: 30°   Wind: 12mph
Humidity: 47%   Direction: 240°WSW
Pressure: 30.1"   Gusts: 18mph
Location:  41.687°N, 86.8677°W
Report Text: KMGC 301755Z AUTO 24010G16KT 10SM SCT040 BKN120 10/M01 A3010 RMK AO2
Loading
Personal Weather Stations






























Interactive Weather Map
Tropical Storm Tracking
New forecast layout! Learn more

10-Day Weather Forecast

Advertisements
Track Severe Weather on mobile